Time;durP1;ratioP1;P1;durP2;ratioP2;P2;SDS_P1;SDS_P2;PMS_P1;PMS_P2;Temp;Humidity;BMP_temperature;BMP_pressure;BME280_temperature;BME280_humidity;BME280_pressure;Samples;Min_cycle;Max_cycle;Signal;HPM_P1;HPM_P2
2022/05/20 00:02:14;;;;;;;3.65;2.95;;;;;;;16.64;100.00;102059.44;4880831;29;20039;-71
2022/05/20 00:05:00;;;;;;;6.97;2.97;;;;;;;16.48;100.00;102056.22;4880808;29;20025;-72
2022/05/20 00:07:46;;;;;;;5.63;2.78;;;;;;;16.41;100.00;102059.03;4881485;29;20032;-71
2022/05/20 00:10:32;;;;;;;4.35;2.90;;;;;;;16.17;100.00;102051.53;4881513;29;20025;-72
2022/05/20 00:13:17;;;;;;;3.35;2.88;;;;;;;16.34;100.00;102054.72;4881160;29;20033;-71
2022/05/20 00:16:03;;;;;;;4.75;2.92;;;;;;;16.06;100.00;102049.09;4880408;29;20367;-71
2022/05/20 00:18:50;;;;;;;5.30;3.08;;;;;;;15.99;100.00;102041.34;4880280;29;20049;-71
2022/05/20 00:21:37;;;;;;;3.88;2.97;;;;;;;16.03;100.00;102037.72;4880632;29;20057;-71
2022/05/20 00:24:22;;;;;;;4.47;2.78;;;;;;;16.09;100.00;102048.19;4880738;29;20033;-71
2022/05/20 00:27:08;;;;;;;4.10;2.88;;;;;;;16.33;100.00;102045.94;4880274;29;20466;-71
2022/05/20 00:29:57;;;;;;;3.55;3.00;;;;;;;16.18;100.00;102040.94;4881765;29;20059;-71
2022/05/20 00:32:43;;;;;;;5.85;3.03;;;;;;;16.28;100.00;102039.00;4880517;29;20059;-71
2022/05/20 00:35:28;;;;;;;2.95;2.65;;;;;;;15.94;100.00;102049.34;4880101;29;20033;-71
2022/05/20 00:38:15;;;;;;;3.03;2.65;;;;;;;16.13;100.00;102048.09;4880740;29;20036;-72
2022/05/20 00:41:01;;;;;;;4.25;2.80;;;;;;;16.28;100.00;102046.94;4880599;29;20029;-71
2022/05/20 00:43:49;;;;;;;3.90;3.03;;;;;;;16.25;100.00;102053.16;4880007;29;20048;-71
2022/05/20 00:46:35;;;;;;;4.47;2.83;;;;;;;16.08;100.00;102041.16;4880631;29;20036;-71
2022/05/20 00:49:20;;;;;;;11.05;3.00;;;;;;;16.21;100.00;102050.59;4879889;29;20029;-71
2022/05/20 00:52:11;;;;;;;3.50;2.72;;;;;;;16.04;100.00;102048.25;4880537;29;20060;-72
2022/05/20 00:55:02;;;;;;;5.18;2.60;;;;;;;16.07;100.00;102047.34;4880632;29;20029;-71
2022/05/20 00:57:52;;;;;;;6.00;3.45;;;;;;;16.09;100.00;102054.34;4880240;29;20087;-71
2022/05/20 01:00:43;;;;;;;3.95;2.90;;;;;;;16.18;100.00;102048.00;4880495;29;20044;-71
2022/05/20 01:03:30;;;;;;;3.92;2.88;;;;;;;15.74;100.00;102051.47;4879841;29;20484;-71
2022/05/20 01:06:15;;;;;;;3.65;2.85;;;;;;;15.82;100.00;102052.19;4880096;29;20025;-71
2022/05/20 01:09:01;;;;;;;6.95;2.90;;;;;;;16.01;100.00;102058.03;4879556;29;20071;-71
2022/05/20 01:11:47;;;;;;;5.13;3.05;;;;;;;15.63;100.00;102058.69;4879978;29;20047;-71
2022/05/20 01:14:33;;;;;;;3.55;2.90;;;;;;;15.64;100.00;102064.84;4880042;29;20029;-71
2022/05/20 01:17:19;;;;;;;3.00;2.70;;;;;;;15.73;100.00;102075.25;4880486;29;20352;-71
2022/05/20 01:20:11;;;;;;;6.55;3.17;;;;;;;15.62;100.00;102067.53;4879669;29;20097;-70
2022/05/20 01:22:56;;;;;;;4.60;2.75;;;;;;;15.83;100.00;102066.28;4880118;29;20453;-71
2022/05/20 01:25:45;;;;;;;4.97;3.25;;;;;;;15.94;100.00;102072.25;4880449;29;20033;-71
2022/05/20 01:28:32;;;;;;;3.63;2.88;;;;;;;15.67;100.00;102076.22;4879680;29;20029;-71
2022/05/20 01:31:18;;;;;;;6.32;3.10;;;;;;;15.87;100.00;102076.78;4880411;29;20049;-72
2022/05/20 01:34:04;;;;;;;4.18;2.97;;;;;;;16.02;100.00;102079.16;4879495;29;20048;-71
2022/05/20 01:36:49;;;;;;;6.07;3.05;;;;;;;16.07;100.00;102076.44;4880626;29;20040;-71
2022/05/20 01:39:36;;;;;;;3.38;2.90;;;;;;;15.94;100.00;102075.78;4879451;29;20060;-72
2022/05/20 01:42:35;;;;;;;6.43;3.17;;;;;;;15.82;100.00;102070.69;4880122;29;20029;-71
2022/05/20 01:45:30;;;;;;;6.35;3.33;;;;;;;15.84;100.00;102062.75;4879821;29;20108;-71
2022/05/20 01:48:25;;;;;;;4.75;3.38;;;;;;;15.64;100.00;102062.22;4880050;29;20033;-72
2022/05/20 01:51:16;;;;;;;5.22;3.28;;;;;;;15.78;100.00;102061.06;4879926;29;20474;-71
2022/05/20 01:54:10;;;;;;;3.25;2.95;;;;;;;15.56;100.00;102067.63;4879613;29;20447;-71
2022/05/20 01:57:15;;;;;;;4.28;2.97;;;;;;;15.54;100.00;102063.25;4879369;29;20112;-71
2022/05/20 02:00:12;;;;;;;3.67;3.28;;;;;;;15.40;100.00;102058.22;4879546;29;20021;-71
2022/05/20 02:03:05;;;;;;;5.97;3.47;;;;;;;15.24;100.00;102059.31;4883138;29;20037;-71
2022/05/20 02:06:12;;;;;;;5.07;3.30;;;;;;;15.36;100.00;102058.28;4883493;29;20036;-71
2022/05/20 02:09:11;;;;;;;4.05;3.50;;;;;;;15.31;100.00;102055.66;4882993;29;20377;-72
2022/05/20 02:11:57;;;;;;;6.57;3.38;;;;;;;15.50;100.00;102046.59;4883103;29;20025;-72
2022/05/20 02:15:25;;;;;;;4.72;3.28;;;;;;;15.21;100.00;102055.81;4882901;29;20052;-74
2022/05/20 02:18:19;;;;;;;4.53;3.30;;;;;;;15.29;100.00;102051.31;4815023;29;20115;-71
2022/05/20 02:21:10;;;;;;;5.78;3.35;;;;;;;15.19;100.00;102049.72;4826952;29;20046;-72
2022/05/20 02:24:02;;;;;;;6.88;3.85;;;;;;;14.56;100.00;102049.69;4883252;29;20123;-71
2022/05/20 02:26:53;;;;;;;5.63;3.45;;;;;;;14.61;100.00;102049.66;4881954;29;20032;-71
2022/05/20 02:29:47;;;;;;;7.60;3.85;;;;;;;14.51;100.00;102053.31;4882375;29;20048;-72
2022/05/20 02:32:44;;;;;;;4.22;3.20;;;;;;;14.73;100.00;102052.13;4882560;29;20043;-72
2022/05/20 02:35:31;;;;;;;4.45;3.55;;;;;;;14.28;100.00;102055.34;4882332;29;20101;-71
2022/05/20 02:38:23;;;;;;;5.68;4.10;;;;;;;14.84;100.00;102063.41;4882741;29;20032;-72
2022/05/20 02:41:08;;;;;;;4.85;3.70;;;;;;;15.07;100.00;102057.81;4882879;29;20040;-72
2022/05/20 02:43:54;;;;;;;7.40;3.50;;;;;;;14.66;100.00;102064.53;4883335;29;20120;-72
2022/05/20 02:46:43;;;;;;;5.80;4.05;;;;;;;14.77;100.00;102069.66;4882642;29;20457;-71
2022/05/20 02:49:29;;;;;;;5.13;3.72;;;;;;;14.99;100.00;102068.47;4882614;29;20029;-71
2022/05/20 02:52:15;;;;;;;9.77;4.00;;;;;;;14.96;100.00;102062.38;4882092;29;20052;-71
2022/05/20 02:55:02;;;;;;;6.65;3.83;;;;;;;14.77;100.00;102069.66;4882595;29;20029;-71
2022/05/20 02:57:48;;;;;;;6.38;3.60;;;;;;;15.02;100.00;102065.78;4882169;29;20029;-71
2022/05/20 03:06:45;;;;;;;7.25;4.40;;;;;;;14.70;100.00;102060.97;4882537;29;20701;-71
2022/05/20 03:09:31;;;;;;;5.43;3.75;;;;;;;14.51;100.00;102066.50;4881953;29;20129;-71
2022/05/20 03:12:17;;;;;;;3.95;3.25;;;;;;;14.72;100.00;102071.50;4881700;29;20124;-71
2022/05/20 03:15:08;;;;;;;5.50;3.78;;;;;;;14.45;100.00;102075.34;4881591;29;20477;-71
2022/05/20 03:17:55;;;;;;;8.43;3.70;;;;;;;14.10;100.00;102074.81;4881542;29;20087;-72
2022/05/20 03:20:44;;;;;;;5.43;3.60;;;;;;;13.81;100.00;102075.97;4881482;29;20029;-72
2022/05/20 03:23:29;;;;;;;7.97;3.80;;;;;;;13.96;100.00;102078.47;4882434;29;20044;-73
2022/05/20 03:26:15;;;;;;;7.20;3.72;;;;;;;14.10;100.00;102076.56;4881800;29;20033;-71
2022/05/20 03:29:03;;;;;;;8.85;3.65;;;;;;;13.82;100.00;102081.25;4881499;29;20108;-70
2022/05/20 03:31:49;;;;;;;6.13;3.38;;;;;;;14.16;100.00;102079.16;4881315;29;20043;-71
2022/05/20 03:34:35;;;;;;;7.43;3.80;;;;;;;14.30;100.00;102078.16;4881459;29;20025;-72
2022/05/20 03:37:20;;;;;;;10.13;4.10;;;;;;;14.27;100.00;102075.53;4881773;29;20139;-72
2022/05/20 03:40:07;;;;;;;5.65;3.40;;;;;;;14.13;100.00;102074.78;4881432;29;20029;-71
2022/05/20 03:42:53;;;;;;;8.57;3.92;;;;;;;14.41;100.00;102073.63;4882315;29;20550;-72
2022/05/20 03:45:42;;;;;;;4.68;3.33;;;;;;;14.32;100.00;102076.34;4881523;29;20044;-71
2022/05/20 03:48:28;;;;;;;9.45;3.72;;;;;;;14.41;100.00;102071.00;4881664;29;20127;-71
2022/05/20 03:51:14;;;;;;;9.43;3.80;;;;;;;14.41;100.00;102073.63;4881332;29;20033;-71
2022/05/20 03:54:00;;;;;;;5.50;3.80;;;;;;;14.50;100.00;102068.25;4881890;29;20066;-71
2022/05/20 03:56:46;;;;;;;4.88;3.50;;;;;;;14.60;100.00;102077.78;4881256;29;20082;-71
2022/05/20 03:59:35;;;;;;;7.43;4.03;;;;;;;14.73;100.00;102082.03;4882449;29;20032;-71
2022/05/20 04:02:21;;;;;;;7.25;3.90;;;;;;;14.65;100.00;102083.91;4881239;29;20029;-71
2022/05/20 04:05:07;;;;;;;8.27;4.22;;;;;;;14.84;100.00;102095.94;4882095;29;20029;-73
2022/05/20 04:07:53;;;;;;;7.78;3.85;;;;;;;14.75;100.00;102098.69;4880763;29;20088;-72
2022/05/20 04:10:39;;;;;;;6.45;3.88;;;;;;;14.75;100.00;102096.06;4881124;29;20527;-71
2022/05/20 04:13:24;;;;;;;3.97;3.22;;;;;;;14.59;100.00;102106.84;4880748;29;20041;-71
2022/05/20 04:16:12;;;;;;;7.70;3.50;;;;;;;14.78;100.00;102113.63;4881745;29;20363;-72
2022/05/20 04:18:58;;;;;;;4.82;3.45;;;;;;;14.77;100.00;102111.88;4880985;29;20132;-71
2022/05/20 04:21:44;;;;;;;4.63;3.50;;;;;;;14.99;100.00;102112.47;4880809;29;20044;-72
2022/05/20 04:24:30;;;;;;;7.18;3.78;;;;;;;14.97;100.00;102103.69;4879803;29;20071;-72
2022/05/20 04:27:16;;;;;;;7.35;3.40;;;;;;;14.59;100.00;102109.47;4880816;29;20052;-71
2022/05/20 04:30:03;;;;;;;6.68;3.70;;;;;;;14.50;100.00;102107.81;4881292;29;20029;-71
2022/05/20 04:32:49;;;;;;;8.55;4.13;;;;;;;14.68;100.00;102107.56;4880751;29;20033;-71
2022/05/20 04:35:35;;;;;;;8.15;4.20;;;;;;;15.04;100.00;102123.84;4880454;29;20033;-72
2022/05/20 04:38:21;;;;;;;7.63;4.28;;;;;;;15.57;100.00;102121.31;4880826;29;20419;-71
2022/05/20 04:47:21;;;;;;;6.20;4.20;;;;;;;15.63;100.00;102124.75;4881292;29;20053;-71
2022/05/20 04:50:08;;;;;;;6.43;4.20;;;;;;;15.65;100.00;102127.38;4880594;29;20458;-72
2022/05/20 04:52:54;;;;;;;8.20;4.90;;;;;;;15.66;100.00;102129.09;4880617;29;20097;-71
2022/05/20 04:55:40;;;;;;;6.13;4.28;;;;;;;15.80;100.00;102121.84;4879843;29;20088;-72
2022/05/20 04:58:25;;;;;;;10.25;4.50;;;;;;;15.82;100.00;102120.91;4880064;29;20029;-71
2022/05/20 05:01:12;;;;;;;8.98;4.65;;;;;;;15.66;100.00;102132.63;4880164;29;20103;-71
2022/05/20 05:03:58;;;;;;;7.85;4.82;;;;;;;15.97;100.00;102128.59;4880313;29;20025;-71
2022/05/20 05:06:44;;;;;;;5.60;4.78;;;;;;;16.03;100.00;102128.47;4880377;29;20518;-71
2022/05/20 05:09:29;;;;;;;10.77;4.60;;;;;;;16.05;100.00;102124.03;4880157;29;20097;-71
2022/05/20 05:12:16;;;;;;;9.07;4.72;;;;;;;15.86;100.00;102121.72;4880238;29;20036;-72
2022/05/20 05:15:03;;;;;;;9.80;4.78;;;;;;;16.21;100.00;102129.91;4879702;29;20056;-72
2022/05/20 05:20:53;;;;;;;7.82;6.10;;;;;;;16.64;100.00;102131.75;4880411;29;20029;-71
2022/05/20 05:23:39;;;;;;;5.97;4.85;;;;;;;16.10;100.00;102121.31;4879894;29;20032;-71
2022/05/20 05:26:24;;;;;;;11.80;7.18;;;;;;;16.61;100.00;102128.31;4880245;29;20454;-72
2022/05/20 05:29:11;;;;;;;7.38;5.28;;;;;;;16.51;100.00;102126.75;4879773;29;20088;-72
2022/05/20 05:31:57;;;;;;;8.70;5.15;;;;;;;16.76;100.00;102128.00;4879565;29;20430;-71
2022/05/20 05:34:43;;;;;;;8.23;5.40;;;;;;;16.99;100.00;102128.38;4880497;29;20360;-72
2022/05/20 05:37:36;;;;;;;8.93;5.95;;;;;;;17.13;100.00;102128.97;4883807;29;20153;-72
2022/05/20 05:40:26;;;;;;;7.90;6.00;;;;;;;17.16;100.00;102134.22;4883614;29;20056;-72
2022/05/20 05:43:12;;;;;;;9.13;5.35;;;;;;;17.18;100.00;102127.06;4883581;29;20029;-73
2022/05/20 05:45:57;;;;;;;7.72;5.68;;;;;;;17.08;100.00;102138.78;4883236;29;20021;-72
2022/05/20 05:48:43;;;;;;;8.13;5.30;;;;;;;17.43;100.00;102133.59;4884379;29;20036;-72
2022/05/20 05:51:29;;;;;;;8.98;5.53;;;;;;;17.47;100.00;102127.31;4883162;29;20025;-72
2022/05/20 05:54:16;;;;;;;8.75;4.68;;;;;;;17.40;100.00;102138.97;4883737;29;20461;-72
2022/05/20 05:57:03;;;;;;;8.52;5.05;;;;;;;17.61;100.00;102131.38;4883759;29;20481;-73
2022/05/20 05:59:49;;;;;;;8.77;5.45;;;;;;;17.65;100.00;102130.41;4882974;29;20116;-73
2022/05/20 06:02:35;;;;;;;9.27;5.05;;;;;;;17.47;100.00;102135.28;4883639;29;20498;-72
2022/05/20 06:05:21;;;;;;;8.00;5.32;;;;;;;17.32;100.00;102132.97;4883081;29;20025;-72
2022/05/20 06:08:07;;;;;;;10.60;5.13;;;;;;;17.60;100.00;102132.28;4883157;29;20037;-72
2022/05/20 06:10:52;;;;;;;8.48;5.15;;;;;;;17.34;100.00;102131.13;4883103;29;20032;-72
2022/05/20 06:13:38;;;;;;;9.50;5.18;;;;;;;17.73;100.00;102131.09;4882550;29;20105;-71
2022/05/20 06:16:24;;;;;;;8.27;5.35;;;;;;;17.89;100.00;102135.09;4883763;29;20366;-72
2022/05/20 06:19:10;;;;;;;6.90;5.13;;;;;;;18.17;100.00;102137.94;4882989;29;20378;-71
2022/05/20 06:21:56;;;;;;;8.38;5.10;;;;;;;18.48;100.00;102130.91;4882483;29;20029;-72
2022/05/20 06:24:42;;;;;;;7.82;5.32;;;;;;;18.70;100.00;102132.06;4883077;29;20089;-72
2022/05/20 06:27:28;;;;;;;6.65;4.45;;;;;;;18.38;100.00;102130.31;4883145;29;20032;-71
2022/05/20 06:30:18;;;;;;;5.78;4.20;;;;;;;18.56;100.00;102136.88;4883716;29;20063;-71
2022/05/20 06:33:04;;;;;;;8.32;4.30;;;;;;;18.44;100.00;102129.25;4882968;29;20044;-73
2022/05/20 06:42:00;;;;;;;5.63;4.32;;;;;;;19.09;100.00;102142.41;4883963;29;20025;-71
2022/05/20 06:44:45;;;;;;;7.57;4.55;;;;;;;19.07;98.59;102143.38;4882430;29;20036;-72
2022/05/20 06:47:34;;;;;;;7.53;4.40;;;;;;;19.18;100.00;102146.59;4881543;29;20120;-71
2022/05/20 06:50:20;;;;;;;6.47;4.30;;;;;;;19.20;97.46;102147.38;4882027;29;20044;-72
2022/05/20 06:53:06;;;;;;;8.75;4.50;;;;;;;19.32;95.58;102151.53;4882949;29;20451;-72
2022/05/20 06:55:52;;;;;;;12.43;4.60;;;;;;;19.38;97.30;102154.84;4882228;29;20085;-72
2022/05/20 06:58:41;;;;;;;6.78;4.90;;;;;;;19.26;96.94;102147.25;4882920;29;20025;-73
2022/05/20 07:01:28;;;;;;;6.45;4.55;;;;;;;19.56;95.91;102148.94;4882603;29;20029;-72
2022/05/20 07:04:14;;;;;;;6.10;4.10;;;;;;;19.58;91.76;102157.75;4881943;29;20093;-73
2022/05/20 07:07:01;;;;;;;11.73;4.47;;;;;;;19.62;93.58;102156.75;4882865;29;20093;-72
2022/05/20 07:09:47;;;;;;;10.40;5.13;;;;;;;19.82;94.34;102146.34;4881757;29;20035;-73
2022/05/20 07:12:33;;;;;;;6.13;4.35;;;;;;;19.65;93.05;102153.13;4882276;29;20446;-72
2022/05/20 07:15:19;;;;;;;7.10;4.50;;;;;;;19.78;94.40;102144.69;4882150;29;20474;-71
2022/05/20 07:18:05;;;;;;;5.70;4.18;;;;;;;19.83;94.28;102142.75;4882263;29;20059;-73
2022/05/20 07:20:51;;;;;;;5.53;3.85;;;;;;;20.22;93.87;102146.78;4881700;29;20124;-72
2022/05/20 07:23:36;;;;;;;6.53;4.30;;;;;;;20.35;90.60;102148.06;4882143;29;20451;-72
2022/05/20 07:26:23;;;;;;;6.97;4.43;;;;;;;20.27;92.79;102146.59;4881414;29;20371;-73
2022/05/20 07:29:08;;;;;;;8.60;5.00;;;;;;;20.39;92.84;102149.69;4881604;29;20355;-72
2022/05/20 07:31:54;;;;;;;6.68;4.15;;;;;;;20.62;93.30;102144.41;4882074;29;20033;-72
2022/05/20 07:34:40;;;;;;;8.00;4.75;;;;;;;20.22;98.31;102141.44;4881929;29;20029;-71
2022/05/20 07:37:26;;;;;;;7.07;4.47;;;;;;;20.79;94.95;102147.34;4881482;29;20025;-72
2022/05/20 07:40:12;;;;;;;6.47;4.18;;;;;;;20.89;94.22;102153.22;4881623;29;20546;-73
2022/05/20 07:42:58;;;;;;;7.72;4.70;;;;;;;20.63;96.27;102151.50;4881754;29;20158;-73
2022/05/20 07:45:43;;;;;;;8.27;5.15;;;;;;;21.05;96.01;102151.75;4880943;29;20340;-72
2022/05/20 07:48:30;;;;;;;7.28;4.50;;;;;;;21.36;94.22;102158.50;4881401;29;20040;-72
2022/05/20 07:51:19;;;;;;;6.22;4.78;;;;;;;21.07;95.30;102161.41;4881232;29;20447;-73
2022/05/20 07:54:11;;;;;;;7.05;5.10;;;;;;;20.90;97.15;102153.13;4881225;29;20116;-73
2022/05/20 07:57:01;;;;;;;9.90;4.70;;;;;;;21.33;97.24;102158.59;4881425;29;20372;-72
2022/05/20 07:59:52;;;;;;;8.75;5.15;;;;;;;21.76;90.77;102158.69;4881412;29;20033;-72
2022/05/20 08:02:40;;;;;;;6.75;4.88;;;;;;;22.38;89.51;102151.53;4880909;29;20041;-72
2022/05/20 08:05:27;;;;;;;7.20;4.97;;;;;;;21.36;93.42;102149.59;4881527;29;20366;-73
2022/05/20 08:08:13;;;;;;;6.18;4.40;;;;;;;22.21;89.38;102151.41;4880951;29;20047;-73
2022/05/20 08:10:59;;;;;;;6.25;4.72;;;;;;;22.22;90.46;102153.13;4880707;29;20056;-72
2022/05/20 08:13:45;;;;;;;7.65;5.03;;;;;;;22.87;86.51;102150.28;4881173;29;20036;-72
2022/05/20 08:16:31;;;;;;;7.05;4.95;;;;;;;23.15;82.44;102151.59;4881053;29;20032;-72
2022/05/20 08:19:16;;;;;;;6.10;4.90;;;;;;;23.23;81.78;102145.94;4880904;29;20197;-72
2022/05/20 08:22:06;;;;;;;8.90;4.20;;;;;;;23.36;81.69;102147.09;4880429;29;20056;-72
2022/05/20 08:24:57;;;;;;;8.70;4.10;;;;;;;23.28;80.67;102149.25;4880370;29;20020;-73
2022/05/20 08:27:42;;;;;;;7.53;4.82;;;;;;;23.74;77.53;102142.56;4880158;29;20041;-72
2022/05/20 08:30:28;;;;;;;5.22;4.28;;;;;;;23.82;78.76;102132.34;4880878;29;20032;-73
2022/05/20 08:33:14;;;;;;;11.98;5.22;;;;;;;24.03;71.96;102132.13;4880472;29;20113;-72
2022/05/20 08:36:01;;;;;;;11.52;5.15;;;;;;;23.85;72.42;102129.47;4881241;29;20025;-73
2022/05/20 08:38:47;;;;;;;6.30;4.07;;;;;;;24.65;69.37;102132.47;4880266;29;20033;-72
2022/05/20 08:41:53;;;;;;;4.40;3.50;;;;;;;25.01;64.04;102127.78;4880567;29;20370;-73
2022/05/20 08:44:38;;;;;;;5.93;3.38;;;;;;;24.58;63.76;102120.28;4880213;29;20036;-73
2022/05/20 08:47:32;;;;;;;8.50;3.47;;;;;;;24.76;63.94;102119.34;4880696;29;20036;-73
2022/05/20 08:50:42;;;;;;;7.50;3.28;;;;;;;24.89;64.25;102125.78;4880586;29;20494;-73
2022/05/20 08:53:35;;;;;;;3.38;2.78;;;;;;;24.45;63.96;102121.00;4880831;29;20037;-73
2022/05/20 08:56:24;;;;;;;5.18;2.45;;;;;;;25.53;62.93;102109.66;4880714;29;20354;-73
2022/05/20 08:59:15;;;;;;;8.63;2.72;;;;;;;24.84;60.28;102113.56;4881370;29;20036;-74
2022/05/20 09:02:01;;;;;;;9.57;2.80;;;;;;;24.71;60.70;102104.47;4880010;29;20043;-74
2022/05/20 09:04:48;;;;;;;3.45;2.55;;;;;;;25.57;59.55;102105.84;4880257;29;20526;-72
2022/05/20 09:07:59;;;;;;;5.05;2.67;;;;;;;24.72;61.50;102099.03;4880529;29;20030;-71
2022/05/20 09:11:03;;;;;;;3.67;2.40;;;;;;;25.50;59.14;102093.72;4881210;29;20067;-72
2022/05/20 09:17:21;;;;;;;6.03;2.45;;;;;;;25.38;58.14;102089.03;4879989;29;20049;-73
2022/05/20 09:20:10;;;;;;;5.55;2.45;;;;;;;25.77;56.04;102073.31;4880477;29;20060;-73
2022/05/20 09:23:05;;;;;;;5.47;2.50;;;;;;;25.89;55.52;102077.97;4880924;29;20037;-73
2022/05/20 09:26:06;;;;;;;5.72;2.38;;;;;;;25.96;55.15;102072.16;4880352;29;20025;-73
2022/05/20 09:29:35;;;;;;;6.72;2.58;;;;;;;26.13;52.35;102072.03;4881199;29;20029;-73
2022/05/20 09:32:26;;;;;;;5.82;2.40;;;;;;;26.20;52.29;102067.16;4879666;29;20033;-73
2022/05/20 09:35:18;;;;;;;3.53;2.30;;;;;;;26.60;52.10;102069.13;4880822;29;20081;-73
2022/05/20 09:38:28;;;;;;;9.77;3.17;;;;;;;26.05;53.75;102060.00;4879952;29;20036;-72
2022/05/20 09:41:23;;;;;;;2.80;2.15;;;;;;;26.04;52.08;102058.28;4880329;29;20043;-71
2022/05/20 09:44:11;;;;;;;8.30;3.22;;;;;;;25.47;52.99;102048.28;4879987;29;20040;-72
2022/05/20 09:47:10;;;;;;;7.15;3.08;;;;;;;25.92;51.22;102048.25;4880223;29;20029;-72
2022/05/20 09:50:25;;;;;;;4.90;2.20;;;;;;;25.90;50.79;102050.16;4880272;29;20037;-73
2022/05/20 09:53:21;;;;;;;30.58;4.40;;;;;;;25.96;50.67;102055.19;4879831;29;20033;-71
2022/05/20 09:56:20;;;;;;;12.30;3.20;;;;;;;25.93;51.21;102045.47;4879793;29;20032;-72
2022/05/20 09:59:26;;;;;;;3.00;2.20;;;;;;;25.93;50.67;102045.47;4879506;29;20037;-71
2022/05/20 10:02:12;;;;;;;3.92;2.05;;;;;;;26.24;50.59;102042.66;4879633;29;20487;-72
2022/05/20 10:05:25;;;;;;;3.00;1.98;;;;;;;26.23;48.46;102030.19;4879733;29;20564;-72
2022/05/20 10:08:11;;;;;;;3.65;1.88;;;;;;;26.56;49.87;102032.63;4879961;29;20029;-72
2022/05/20 10:11:05;;;;;;;5.85;2.42;;;;;;;26.58;50.36;102038.78;4879964;29;20100;-72
2022/05/20 10:13:56;;;;;;;3.25;1.90;;;;;;;26.29;49.69;102037.00;4879512;29;20064;-72
2022/05/20 10:16:54;;;;;;;3.53;1.95;;;;;;;26.73;49.92;102029.75;4879456;29;20112;-71
2022/05/20 10:19:58;;;;;;;6.20;1.92;;;;;;;27.02;48.82;102015.28;4879937;29;20459;-72
2022/05/20 10:23:01;;;;;;;2.70;1.80;;;;;;;26.33;47.09;102027.81;4881620;29;20069;-72
2022/05/20 10:26:06;;;;;;;6.65;1.83;;;;;;;26.50;47.30;102019.53;4882900;29;20021;-72
2022/05/20 10:35:24;;;;;;;2.97;2.00;;;;;;;26.53;44.35;102004.06;4883404;29;20370;-72
2022/05/20 10:38:26;;;;;;;3.88;2.25;;;;;;;26.77;45.65;102007.06;4882619;29;20033;-71
2022/05/20 10:41:17;;;;;;;2.75;2.17;;;;;;;27.26;44.50;101997.56;4882883;29;20094;-72
2022/05/20 11:20:37;;;;;;;5.38;1.80;;;;;;;28.17;36.79;101931.03;4916504;23;20049;-72
2022/05/20 11:23:49;;;;;;;3.45;1.67;;;;;;;27.80;37.58;101936.38;4894498;29;20112;-72
2022/05/20 11:26:59;;;;;;;3.63;1.63;;;;;;;27.81;37.49;101921.94;4869254;29;20049;-72
2022/05/20 11:29:59;;;;;;;4.18;2.05;;;;;;;27.37;37.90;101922.31;4882984;29;20029;-72
2022/05/20 11:33:03;;;;;;;8.23;2.00;;;;;;;27.88;38.46;101917.88;4869238;29;20025;-73
2022/05/20 11:36:25;;;;;;;4.15;1.80;;;;;;;28.13;37.40;101910.66;4869031;29;20029;-72
2022/05/20 11:39:20;;;;;;;3.75;1.98;;;;;;;28.45;36.07;101906.50;4881954;29;20359;-72
2022/05/20 11:42:37;;;;;;;2.97;2.05;;;;;;;28.46;36.95;101905.53;4868881;29;20407;-72
2022/05/20 11:45:44;;;;;;;3.53;2.10;;;;;;;28.15;35.66;101897.03;4882342;29;20025;-72
2022/05/20 11:48:57;;;;;;;3.83;2.20;;;;;;;28.81;35.36;101897.53;4869273;29;20036;-72
2022/05/20 11:52:00;;;;;;;3.92;1.75;;;;;;;28.50;35.25;101893.56;4868486;29;20029;-72
2022/05/20 11:55:11;;;;;;;3.35;1.83;;;;;;;28.45;35.62;101893.00;4881822;29;20029;-72
2022/05/20 11:58:06;;;;;;;2.97;1.77;;;;;;;28.33;35.28;101887.63;4862453;29;20466;-71
2022/05/20 12:00:53;;;;;;;3.25;1.95;;;;;;;28.77;34.56;101883.41;4882278;29;20140;-72
2022/05/20 12:07:04;;;;;;;6.63;1.60;;;;;;;28.97;32.78;101879.22;4882337;29;20093;-73
2022/05/20 12:09:55;;;;;;;2.67;1.40;;;;;;;28.59;32.58;101871.28;4881316;29;20048;-74
2022/05/20 12:13:16;;;;;;;3.35;1.50;;;;;;;28.47;32.37;101869.50;4881878;29;20029;-73
2022/05/20 12:16:09;;;;;;;6.22;1.70;;;;;;;28.79;32.39;101864.41;4880689;29;20040;-73
2022/05/20 12:25:36;;;;;;;11.30;1.52;;;;;;;29.30;32.32;101855.94;4882114;29;20029;-72
2022/05/20 12:28:22;;;;;;;4.15;1.63;;;;;;;28.79;31.84;101845.50;4868027;29;20039;-73
2022/05/20 12:31:38;;;;;;;2.25;1.60;;;;;;;29.07;32.12;101842.47;4869094;29;20177;-74
2022/05/20 12:34:39;;;;;;;2.80;1.50;;;;;;;28.40;32.56;101835.81;4881600;29;20103;-73
2022/05/20 12:38:13;;;;;;;4.80;1.60;;;;;;;28.87;32.32;101826.91;4881525;29;20040;-74
2022/05/20 12:41:00;;;;;;;9.00;2.08;;;;;;;29.66;32.64;101828.75;4881461;29;20036;-74
2022/05/20 12:43:53;;;;;;;4.20;1.50;;;;;;;28.57;31.56;101826.53;4881737;29;20474;-72
2022/05/20 12:47:03;;;;;;;2.58;1.60;;;;;;;28.89;30.80;101817.72;4881561;29;20362;-73
2022/05/20 12:49:48;;;;;;;4.68;1.52;;;;;;;28.71;31.36;101812.84;4880534;29;20075;-72
2022/05/20 12:52:49;;;;;;;4.05;1.50;;;;;;;28.53;32.66;101808.84;4881222;29;20045;-73
2022/05/20 12:55:43;;;;;;;7.80;1.80;;;;;;;28.22;32.57;101804.84;4881332;29;20037;-72
2022/05/20 12:58:33;;;;;;;5.93;1.50;;;;;;;28.30;31.90;101809.66;4881108;29;20029;-71
2022/05/20 13:01:19;;;;;;;5.18;2.35;;;;;;;29.05;32.12;101807.50;4880931;29;20075;-71
2022/05/20 13:04:11;;;;;;;5.07;2.10;;;;;;;29.60;31.68;101806.75;4880928;29;20164;-72
2022/05/20 13:06:59;;;;;;;2.50;1.80;;;;;;;29.38;31.05;101794.09;4881258;29;20354;-72
2022/05/20 13:09:47;;;;;;;2.28;1.50;;;;;;;29.33;30.84;101800.84;4880391;29;20033;-71
2022/05/20 13:12:33;;;;;;;3.95;1.50;;;;;;;29.15;30.76;101800.41;4868059;29;20037;-71
2022/05/20 13:15:19;;;;;;;3.88;1.60;;;;;;;28.90;31.65;101797.88;4867185;29;20037;-71
2022/05/20 13:18:18;;;;;;;3.28;1.50;;;;;;;28.96;31.79;101789.28;4880778;29;20029;-71
2022/05/20 13:21:19;;;;;;;4.15;1.90;;;;;;;28.96;30.73;101786.59;4867156;29;20032;-72
2022/05/20 13:24:14;;;;;;;2.92;1.60;;;;;;;29.13;31.02;101779.94;4867254;29;20506;-72
2022/05/20 13:27:12;;;;;;;6.28;1.50;;;;;;;28.15;31.58;101779.31;4880219;29;20045;-71
2022/05/20 13:30:30;;;;;;;5.80;1.50;;;;;;;28.62;30.95;101775.78;4881095;29;20033;-72
2022/05/20 13:33:16;;;;;;;4.10;1.58;;;;;;;28.69;31.39;101775.19;4879542;29;20112;-71
2022/05/20 13:36:04;;;;;;;2.03;1.33;;;;;;;28.60;31.15;101767.81;4881293;29;20404;-71
2022/05/20 13:38:54;;;;;;;1.50;1.40;;;;;;;28.73;30.39;101770.44;4880876;29;20033;-72
2022/05/20 13:41:40;;;;;;;2.78;1.58;;;;;;;28.74;31.65;101759.53;4867816;29;20029;-72
2022/05/20 13:44:34;;;;;;;3.97;1.33;;;;;;;28.28;31.47;101755.00;4880918;29;20033;-72
2022/05/20 13:50:27;;;;;;;3.35;1.35;;;;;;;28.52;31.78;101750.50;4880793;29;20025;-73
2022/05/20 13:53:13;;;;;;;2.38;1.60;;;;;;;28.11;31.13;101744.59;4880583;29;20045;-73
2022/05/20 13:55:59;;;;;;;4.43;1.60;;;;;;;28.65;30.88;101743.19;4881351;29;20033;-73
2022/05/20 13:58:46;;;;;;;2.15;1.60;;;;;;;28.66;30.89;101747.59;4884079;29;20025;-73
2022/05/20 14:01:32;;;;;;;3.63;1.70;;;;;;;28.85;30.90;101739.81;4883992;29;20032;-74
2022/05/20 14:04:19;;;;;;;2.85;1.48;;;;;;;28.74;31.08;101732.56;4883509;29;20466;-73
2022/05/20 14:07:09;;;;;;;2.05;1.48;;;;;;;28.49;31.56;101740.78;4883753;29;20103;-73
2022/05/20 14:10:15;;;;;;;4.00;1.60;;;;;;;28.37;31.38;101738.97;4882805;29;20127;-73
2022/05/20 14:13:06;;;;;;;3.35;1.52;;;;;;;28.18;32.39;101735.09;4884203;29;20051;-73
2022/05/20 14:15:56;;;;;;;3.00;1.60;;;;;;;28.97;32.06;101728.09;4869880;29;20025;-74
2022/05/20 14:18:46;;;;;;;2.97;1.90;;;;;;;28.52;32.03;101735.16;4883352;29;20474;-73
2022/05/20 14:21:39;;;;;;;6.43;1.35;;;;;;;27.63;31.98;101722.09;4882661;29;20064;-73
2022/05/20 14:24:32;;;;;;;1.80;1.50;;;;;;;28.35;31.50;101724.78;4870641;29;20025;-75
2022/05/20 14:27:40;;;;;;;4.00;1.48;;;;;;;28.22;32.10;101713.19;4883640;29;20025;-74
2022/05/20 14:30:41;;;;;;;3.83;1.50;;;;;;;28.41;31.90;101716.25;4871098;29;20040;-73
2022/05/20 14:33:36;;;;;;;2.22;1.65;;;;;;;27.94;31.80;101712.66;4883522;29;20033;-73